NATURA VA

 METAR AND TAF INFORMATION
METAR FOR LFKJ
ADDS - METARS form results

(0324 UTC 16 January 2019)
Data provider http://aviationweather.gov/metar/data/
 
METAR text: LFKJ 160300Z AUTO 05006KT 020V090 CAVOK 04/M00 Q1022 NOSIG
Conditions at: LFKJ (AJACCIO/CAMPO OR, FR) observed 0300 UTC 16 January 2019
Temperature: 4.0°C (39°F)
Dewpoint: 0.0°C (32°F) [RH = 75%]
Pressure (altimeter): 30.18 inches Hg (1022.0 mb)
Winds: from the NE (50 degrees) at 7 MPH (6 knots; 3.1 m/s)
Visibility: 6 or more miles (10+ km)
Ceiling: ceiling and visibility are OK
Clouds: unknown
Weather: no significant weather observed at this time

METAR text: LFKJ 160230Z AUTO 04008KT CAVOK 04/00 Q1022 NOSIG
Conditions at: LFKJ (AJACCIO/CAMPO OR, FR) observed 0230 UTC 16 January 2019
Temperature: 4.0°C (39°F)
Dewpoint: 0.0°C (32°F) [RH = 75%]
Pressure (altimeter): 30.18 inches Hg (1022.0 mb)
Winds: from the NE (40 degrees) at 9 MPH (8 knots; 4.1 m/s)
Visibility: 6 or more miles (10+ km)
Ceiling: ceiling and visibility are OK
Clouds: unknown
Weather: no significant weather observed at this time

Forecast for: LFKJ (AJACCIO/CAMPO OR, FR)
Text: TAF LFKJ 160200Z 1603/1703 04005KT CAVOK
Forecast period: 0300 to 0900 UTC 16 January 2019
Forecast type: FROM: standard forecast or significant change
Winds: from the NE (40 degrees) at 6 MPH (5 knots; 2.6 m/s)
Visibility: 6 or more miles 10+ km)
Ceiling: unknown
Clouds: missing
Weather: NSW  (no significant weather)
Text: BECMG 1609/1612 12006KT BKN033
Forecast period: 0900 to 1800 UTC 16 January 2019
Forecast type: BECOMING: Conditions expected to become as follows by 1200 UTC 16 January 2019
Winds: from the ESE (120 degrees) at 7 MPH (6 knots; 3.1 m/s)
Visibility: 6 or more miles 10+ km)
Ceiling: 3300 feet AGL
Clouds: broken clouds at 3300 feet AGL
Weather: NSW  (no significant weather)
Text: BECMG 1618/1621 05005KT
Forecast period: 1800 UTC 16 January 2019 to 0300 UTC 17 January 2019
Forecast type: BECOMING: Conditions expected to become as follows by 2100 UTC 16 January 2019
Winds: from the NE (50 degrees) at 6 MPH (5 knots; 2.6 m/s)
Visibility: 6 or more miles 10+ km)
Ceiling: 3300 feet AGL
Clouds: broken clouds at 3300 feet AGL
Weather: NSW  (no significant weather)

 AIRPORT MAP

 RUNWAY INFORMATION
Runway 02 Runway length 7897 ft Runway width 148 ft
Runway elevation 15 ft Runway displaced threshold 0 ft Runway heading 25
Runway 20 Runway length 7897 ft Runway width 148 ft
Runway elevation 18 ft Runway displaced threshold 744 ft Runway heading 205

 AIRPORT FREQUENCIES
Type AFIS Name AFIS Frequency 119.825 MHZ
Type APP Name AJACCIO AP Frequency 121.05 MHZ
Type ATIS Name AJACCIO AT Frequency 126.925 MHZ
Type GND Name AJACCIO GN Frequency 121.7 MHZ
Type TWR Name AJACCIO TW Frequency 118.075 MHZ

 AIRPORT NEAR NAVIGATION AIDS
Type NDB Name Ajaccio/Campo Dell Oro Frequency 341 KHZ



Powered by Virtual Airlines Manager [v2.6.2]